Time;durP1;ratioP1;P1;durP2;ratioP2;P2;SDS_P1;SDS_P2;PMS_P1;PMS_P2;Temp;Humidity;BMP_temperature;BMP_pressure;BME280_temperature;BME280_humidity;BME280_pressure;Samples;Min_cycle;Max_cycle;Signal;HPM_P1;HPM_P2
2023/01/18 00:00:09;;;;;;;2.20;2.00;;;;;;;0.10;100.00;93347.53;5048578;28;20206;-75
2023/01/18 00:02:36;;;;;;;2.50;2.27;;;;;;;0.13;100.00;93354.22;5041304;28;20205;-75
2023/01/18 00:05:03;;;;;;;2.67;1.80;;;;;;;0.12;100.00;93349.94;5046398;28;20206;-75
2023/01/18 00:07:32;;;;;;;2.57;2.10;;;;;;;0.14;100.00;93350.53;5036109;28;20199;-75
2023/01/18 00:09:59;;;;;;;3.60;2.30;;;;;;;0.17;100.00;93353.47;5047516;28;20207;-75
2023/01/18 00:12:25;;;;;;;2.83;2.20;;;;;;;0.24;100.00;93359.47;5041439;28;20207;-75
2023/01/18 00:14:52;;;;;;;2.50;2.00;;;;;;;0.26;100.00;93361.84;5043031;28;20206;-75
2023/01/18 00:17:19;;;;;;;2.20;1.97;;;;;;;0.33;100.00;93363.34;5049449;28;20209;-75
2023/01/18 00:19:46;;;;;;;3.87;2.10;;;;;;;0.41;100.00;93361.34;5043295;28;20217;-75
2023/01/18 00:22:13;;;;;;;2.33;1.87;;;;;;;0.47;100.00;93363.00;5034335;28;20204;-75
2023/01/18 00:24:42;;;;;;;2.33;1.80;;;;;;;0.50;100.00;93368.66;5045335;28;20280;-75
2023/01/18 00:27:09;;;;;;;2.60;1.83;;;;;;;0.52;100.00;93363.09;5043109;28;20220;-75
2023/01/18 00:29:36;;;;;;;3.07;2.23;;;;;;;0.50;100.00;93371.31;5049373;28;20476;-75
2023/01/18 00:32:03;;;;;;;2.27;2.00;;;;;;;0.33;100.00;93367.84;5045680;28;20221;-75
2023/01/18 00:34:31;;;;;;;3.73;1.80;;;;;;;0.33;100.00;93371.31;5035036;28;20304;-75
2023/01/18 00:36:58;;;;;;;2.83;2.00;;;;;;;0.37;100.00;93371.59;5048026;28;20221;-75
2023/01/18 00:39:25;;;;;;;2.33;2.00;;;;;;;0.41;100.00;93369.28;5050089;28;20224;-75
2023/01/18 00:44:38;;;;;;;2.10;1.90;;;;;;;0.53;100.00;93377.97;5042994;28;20217;-75
2023/01/18 00:47:05;;;;;;;3.23;2.07;;;;;;;0.58;100.00;93383.38;5044165;28;20218;-75
2023/01/18 00:49:32;;;;;;;3.27;2.30;;;;;;;0.60;100.00;93394.53;5049100;28;20217;-75
2023/01/18 00:51:59;;;;;;;2.97;2.20;;;;;;;0.60;100.00;93389.22;5046578;28;20278;-75
2023/01/18 00:54:26;;;;;;;2.53;1.90;;;;;;;0.52;100.00;93390.44;5046965;28;20263;-75
2023/01/18 00:56:55;;;;;;;2.37;1.90;;;;;;;0.55;100.00;93392.63;5044550;28;20198;-75
2023/01/18 00:59:22;;;;;;;2.83;2.27;;;;;;;0.53;100.00;93386.72;5042346;28;20260;-75
2023/01/18 01:01:49;;;;;;;2.90;1.97;;;;;;;0.55;100.00;93382.00;5043636;28;20225;-75
2023/01/18 01:07:00;;;;;;;2.20;1.93;;;;;;;0.63;100.00;93402.84;5048450;28;20206;-75
2023/01/18 01:09:29;;;;;;;2.80;1.70;;;;;;;0.67;100.00;93406.63;5045391;28;20228;-75
2023/01/18 01:26:07;;;;;;;5.17;2.57;;;;;;;0.74;100.00;93427.72;5044963;28;20245;-75
2023/01/18 01:28:36;;;;;;;3.27;2.53;;;;;;;0.72;100.00;93435.91;5036572;28;20230;-75
2023/01/18 01:31:05;;;;;;;4.10;2.40;;;;;;;0.74;100.00;93444.44;5040524;28;20212;-75
2023/01/18 01:33:33;;;;;;;3.33;2.20;;;;;;;0.77;100.00;93447.66;5046347;28;20240;-75
2023/01/18 01:36:02;;;;;;;2.60;2.00;;;;;;;0.80;100.00;93441.88;5045246;28;20206;-75
2023/01/18 01:38:29;;;;;;;3.03;2.27;;;;;;;0.85;100.00;93455.25;5045696;28;20202;-75
2023/01/18 01:40:58;;;;;;;4.03;2.50;;;;;;;0.85;100.00;93458.66;5045323;28;20210;-75
2023/01/18 01:43:44;;;;;;;3.73;2.37;;;;;;;0.80;100.00;93463.09;5047999;28;20353;-75
2023/01/18 01:46:19;;;;;;;3.10;2.13;;;;;;;0.72;100.00;93454.50;5049280;28;20280;-75
2023/01/18 01:48:47;;;;;;;2.73;2.00;;;;;;;0.70;100.00;93461.88;5062781;28;20235;-75
2023/01/18 01:51:16;;;;;;;2.00;1.80;;;;;;;0.64;100.00;93460.19;5045819;28;20202;-75
2023/01/18 01:53:44;;;;;;;4.43;2.20;;;;;;;0.74;100.00;93473.66;5042321;28;20211;-75
2023/01/18 01:56:12;;;;;;;2.67;1.97;;;;;;;0.80;100.00;93471.06;5040302;28;20208;-75
2023/01/18 01:58:40;;;;;;;2.87;2.13;;;;;;;0.87;100.00;93479.69;5033508;28;20202;-75
2023/01/18 02:01:09;;;;;;;3.50;2.37;;;;;;;0.83;100.00;93473.25;5030796;28;20329;-75
2023/01/18 02:03:41;;;;;;;3.77;2.30;;;;;;;0.83;100.00;93486.53;5030134;28;20289;-75
2023/01/18 02:06:18;;;;;;;3.43;2.33;;;;;;;0.85;100.00;93471.94;5041742;28;20213;-75
2023/01/18 02:08:47;;;;;;;3.50;2.17;;;;;;;0.93;100.00;93489.38;5039118;28;20233;-75
2023/01/18 02:11:14;;;;;;;2.53;1.80;;;;;;;0.97;100.00;93487.81;5040074;28;20232;-75
2023/01/18 02:13:41;;;;;;;3.47;2.40;;;;;;;1.02;100.00;93488.69;5034758;28;20203;-75
2023/01/18 02:16:19;;;;;;;5.63;3.27;;;;;;;1.04;100.00;93483.16;5043252;28;20202;-75
2023/01/18 02:18:55;;;;;;;4.90;3.00;;;;;;;1.08;100.00;93492.28;5038658;28;20289;-75
2023/01/18 02:21:33;;;;;;;4.97;3.00;;;;;;;1.08;100.00;93482.44;5040701;28;20291;-75
2023/01/18 02:24:36;;;;;;;4.33;2.67;;;;;;;1.09;100.00;93486.72;5045889;28;20257;-75
2023/01/18 02:27:11;;;;;;;4.70;2.93;;;;;;;1.02;100.00;93482.63;5035303;28;20206;-75
2023/01/18 02:29:57;;;;;;;3.97;2.50;;;;;;;0.89;100.00;93490.88;5042359;28;20228;-75
2023/01/18 02:32:37;;;;;;;3.50;2.50;;;;;;;0.80;100.00;93489.66;5042201;28;20208;-75
2023/01/18 02:35:09;;;;;;;3.23;2.30;;;;;;;0.72;100.00;93491.66;5037495;28;20514;-75
2023/01/18 02:37:44;;;;;;;4.97;2.50;;;;;;;0.73;100.00;93490.63;5046222;28;20212;-75
2023/01/18 02:40:17;;;;;;;3.90;2.77;;;;;;;0.74;100.00;93486.13;5032438;28;20208;-75
2023/01/18 02:48:22;;;;;;;2.47;1.90;;;;;;;0.69;100.00;93484.16;5041827;28;20219;-75
2023/01/18 02:50:49;;;;;;;3.30;2.40;;;;;;;0.66;100.00;93484.66;5047736;28;20206;-75
2023/01/18 02:53:17;;;;;;;3.17;2.30;;;;;;;0.67;100.00;93491.59;5047249;28;20212;-75
2023/01/18 02:55:51;;;;;;;2.20;1.90;;;;;;;0.64;100.00;93488.59;5041408;28;20252;-75
2023/01/18 02:58:25;;;;;;;3.63;2.33;;;;;;;0.64;100.00;93502.69;5046376;28;20210;-75
2023/01/18 03:00:59;;;;;;;2.80;2.10;;;;;;;0.60;100.00;93498.06;5050287;28;20273;-75
2023/01/18 03:03:27;;;;;;;3.23;1.90;;;;;;;0.49;100.00;93491.78;5038570;28;20205;-75
2023/01/18 03:05:59;;;;;;;3.57;1.93;;;;;;;0.47;100.00;93496.53;5043134;28;20270;-75
2023/01/18 03:08:32;;;;;;;3.97;1.80;;;;;;;0.44;100.00;93502.31;5043014;28;20227;-75
2023/01/18 03:11:02;;;;;;;2.00;1.60;;;;;;;0.40;100.00;93498.53;5046633;28;20285;-75
2023/01/18 03:13:52;;;;;;;1.90;1.53;;;;;;;0.41;100.00;93494.03;5048419;28;20230;-75
2023/01/18 03:16:24;;;;;;;1.87;1.47;;;;;;;0.41;100.00;93494.84;5049619;28;20194;-75
2023/01/18 03:19:01;;;;;;;1.90;1.50;;;;;;;0.50;100.00;93490.75;5043754;28;20305;-75
2023/01/18 03:21:36;;;;;;;1.90;1.40;;;;;;;0.58;100.00;93495.69;5047324;28;20256;-75
2023/01/18 03:24:06;;;;;;;2.20;1.70;;;;;;;0.60;100.00;93501.53;5047224;28;20206;-75
2023/01/18 03:26:38;;;;;;;2.73;1.20;;;;;;;0.71;100.00;93507.84;5045336;28;20208;-75
2023/01/18 03:34:50;;;;;;;2.73;1.60;;;;;;;0.97;100.00;93498.44;5043546;28;20211;-75
2023/01/18 03:37:27;;;;;;;1.30;1.20;;;;;;;0.84;100.00;93506.75;5042585;28;20206;-75
2023/01/18 03:39:57;;;;;;;1.97;1.30;;;;;;;0.80;100.00;93508.25;5048139;28;20256;-75
2023/01/18 03:42:30;;;;;;;1.73;1.10;;;;;;;0.77;100.00;93514.84;5058342;28;20206;-75
2023/01/18 03:45:04;;;;;;;4.03;1.20;;;;;;;0.85;100.00;93508.34;5049748;28;20228;-75
2023/01/18 03:47:33;;;;;;;1.93;1.20;;;;;;;0.75;100.00;93514.28;5044725;28;20198;-75
2023/01/18 03:50:00;;;;;;;0.90;0.90;;;;;;;0.70;100.00;93522.97;5035845;28;20277;-75
2023/01/18 03:52:36;;;;;;;1.23;1.10;;;;;;;0.68;100.00;93517.06;5045595;28;20190;-75
2023/01/18 03:55:09;;;;;;;2.23;1.20;;;;;;;0.79;100.00;93520.72;5039962;28;20265;-75
2023/01/18 03:57:42;;;;;;;1.90;1.20;;;;;;;0.82;100.00;93519.44;5041779;28;20207;-75
2023/01/18 04:00:12;;;;;;;1.10;1.00;;;;;;;0.94;100.00;93523.63;5038454;28;20203;-75
2023/01/18 04:02:44;;;;;;;0.90;0.90;;;;;;;0.94;100.00;93528.13;5044719;28;20190;-75
2023/01/18 04:05:11;;;;;;;1.17;1.07;;;;;;;0.98;100.00;93531.94;5043469;28;20264;-75
2023/01/18 04:07:38;;;;;;;1.10;1.00;;;;;;;1.11;100.00;93544.91;5031582;28;20217;-75
2023/01/18 04:10:06;;;;;;;1.43;1.20;;;;;;;1.10;100.00;93543.31;5044227;28;20321;-75
2023/01/18 04:12:33;;;;;;;2.10;1.10;;;;;;;1.03;100.00;93542.66;5046687;28;20198;-75
2023/01/18 04:15:00;;;;;;;2.57;1.53;;;;;;;0.96;100.00;93547.31;5043466;28;20209;-75
2023/01/18 04:17:28;;;;;;;1.70;1.43;;;;;;;0.95;100.00;93548.34;5045486;28;20202;-75
2023/01/18 04:19:56;;;;;;;2.27;1.30;;;;;;;0.91;100.00;93557.84;5043814;28;20232;-75
2023/01/18 04:22:23;;;;;;;1.83;1.43;;;;;;;0.93;100.00;93561.09;5052044;28;20210;-75
2023/01/18 04:24:50;;;;;;;1.67;1.43;;;;;;;0.89;100.00;93563.41;5044063;28;20317;-75
2023/01/18 04:27:17;;;;;;;2.23;1.70;;;;;;;0.93;100.00;93561.91;5044883;28;20213;-75
2023/01/18 04:29:44;;;;;;;2.23;1.57;;;;;;;0.88;100.00;93561.78;5044613;28;20232;-75
2023/01/18 04:32:11;;;;;;;1.90;1.60;;;;;;;0.88;100.00;93569.75;5044977;28;20197;-75
2023/01/18 04:34:38;;;;;;;2.30;1.53;;;;;;;0.94;100.00;93566.13;5048617;28;20198;-75
2023/01/18 04:37:06;;;;;;;2.93;1.60;;;;;;;0.94;100.00;93563.47;5048654;28;20206;-75
2023/01/18 04:39:33;;;;;;;3.80;1.60;;;;;;;0.94;100.00;93571.44;5044102;28;20213;-75
2023/01/18 04:42:00;;;;;;;2.20;1.50;;;;;;;0.91;100.00;93576.44;5045282;28;20207;-75
2023/01/18 04:44:27;;;;;;;2.13;1.90;;;;;;;0.93;100.00;93575.19;5038759;28;20197;-75
2023/01/18 04:46:54;;;;;;;1.80;1.60;;;;;;;0.95;100.00;93581.03;5046061;28;20209;-75
2023/01/18 04:49:22;;;;;;;3.03;1.53;;;;;;;0.98;100.00;93574.44;5042909;28;21473;-75
2023/01/18 04:51:49;;;;;;;1.97;1.47;;;;;;;1.01;100.00;93576.63;5045635;28;20199;-75
2023/01/18 04:54:18;;;;;;;1.87;1.50;;;;;;;1.05;100.00;93581.22;5036514;28;20213;-75
2023/01/18 04:56:45;;;;;;;2.07;1.50;;;;;;;1.06;100.00;93587.34;5043370;28;20206;-75
2023/01/18 04:59:15;;;;;;;2.53;1.77;;;;;;;1.06;100.00;93590.81;5041883;28;20263;-75
2023/01/18 05:01:42;;;;;;;2.73;1.87;;;;;;;1.06;100.00;93592.66;5038931;28;20210;-75
2023/01/18 05:04:09;;;;;;;2.50;1.87;;;;;;;1.03;100.00;93593.13;5046979;28;20202;-75
2023/01/18 05:06:36;;;;;;;2.77;1.70;;;;;;;1.04;100.00;93597.41;5042845;28;20254;-75
2023/01/18 05:09:04;;;;;;;3.23;2.07;;;;;;;1.01;100.00;93603.19;5033176;28;20210;-75
2023/01/18 05:11:32;;;;;;;2.73;2.00;;;;;;;1.00;100.00;93602.41;5041704;28;20236;-75
2023/01/18 05:13:59;;;;;;;3.53;1.93;;;;;;;1.00;100.00;93601.59;5043593;28;20276;-75
2023/01/18 05:16:26;;;;;;;3.03;2.10;;;;;;;0.99;100.00;93613.25;5044078;28;20203;-75
2023/01/18 05:18:53;;;;;;;2.83;1.80;;;;;;;0.97;100.00;93608.19;5045851;28;20205;-75
2023/01/18 05:21:20;;;;;;;2.50;2.00;;;;;;;0.99;100.00;93624.69;5044411;28;20266;-75
2023/01/18 05:23:47;;;;;;;2.47;2.10;;;;;;;0.99;100.00;93622.03;5042556;28;20272;-75
2023/01/18 05:26:17;;;;;;;4.10;2.20;;;;;;;1.02;100.00;93626.06;5035731;28;20243;-75
2023/01/18 05:28:46;;;;;;;4.57;3.10;;;;;;;1.06;100.00;93627.19;5045362;28;20263;-75
2023/01/18 05:31:14;;;;;;;2.80;2.47;;;;;;;1.09;100.00;93627.53;5046785;28;20233;-75
2023/01/18 05:33:41;;;;;;;3.07;2.27;;;;;;;1.09;100.00;93632.03;5036786;28;20238;-75
2023/01/18 05:36:08;;;;;;;3.63;2.43;;;;;;;1.07;100.00;93645.56;5039652;28;20249;-75
2023/01/18 05:38:36;;;;;;;3.90;2.60;;;;;;;1.15;100.00;93652.34;5046384;28;20190;-75
2023/01/18 05:41:03;;;;;;;4.37;2.47;;;;;;;1.04;100.00;93645.22;5043979;28;20198;-75
2023/01/18 05:43:31;;;;;;;2.33;1.90;;;;;;;1.07;100.00;93653.53;5042825;28;20202;-75
2023/01/18 05:45:59;;;;;;;2.23;2.00;;;;;;;1.04;100.00;93656.66;5042497;28;20205;-75
2023/01/18 05:48:26;;;;;;;2.03;1.80;;;;;;;1.00;100.00;93642.25;5060287;28;20238;-75
2023/01/18 05:50:53;;;;;;;2.53;1.90;;;;;;;1.03;100.00;93644.41;5040109;28;20254;-75
2023/01/18 05:53:22;;;;;;;2.20;1.90;;;;;;;1.04;100.00;93643.38;5044625;28;20210;-75
2023/01/18 05:55:57;;;;;;;2.70;2.10;;;;;;;1.07;100.00;93645.56;5042463;28;20197;-75
2023/01/18 05:58:24;;;;;;;3.47;2.40;;;;;;;1.08;100.00;93651.69;5045819;28;20206;-75
2023/01/18 06:00:53;;;;;;;2.80;2.50;;;;;;;1.04;100.00;93659.31;5041046;28;20199;-75
2023/01/18 06:03:22;;;;;;;3.43;2.33;;;;;;;1.04;100.00;93655.84;5045280;28;20255;-75
2023/01/18 06:05:50;;;;;;;4.50;2.53;;;;;;;1.03;100.00;93664.84;5043721;28;20202;-75
2023/01/18 06:08:18;;;;;;;3.07;2.10;;;;;;;0.96;100.00;93666.84;5046325;28;20202;-75
2023/01/18 06:10:51;;;;;;;2.47;2.20;;;;;;;1.03;100.00;93683.44;5048155;28;20218;-75
2023/01/18 06:13:18;;;;;;;3.13;2.30;;;;;;;1.06;100.00;93675.03;5038694;28;20209;-75
2023/01/18 06:15:46;;;;;;;4.07;2.57;;;;;;;1.05;100.00;93681.38;5037608;28;20198;-75
2023/01/18 06:18:13;;;;;;;4.30;2.93;;;;;;;1.03;100.00;93694.88;5032129;28;20226;-75
2023/01/18 06:20:41;;;;;;;3.50;2.50;;;;;;;0.89;100.00;93706.03;5043488;28;20214;-75
2023/01/18 06:23:08;;;;;;;4.90;2.97;;;;;;;0.80;100.00;93694.97;5027641;28;20209;-75
2023/01/18 06:25:36;;;;;;;3.93;2.63;;;;;;;0.84;100.00;93703.28;5045878;28;20233;-75
2023/01/18 06:28:03;;;;;;;2.77;2.20;;;;;;;0.83;100.00;93701.66;5043442;28;20238;-75
2023/01/18 06:30:31;;;;;;;3.37;2.30;;;;;;;0.79;100.00;93713.78;5041402;28;20218;-75
2023/01/18 06:33:03;;;;;;;3.53;2.23;;;;;;;0.85;100.00;93726.16;5044966;28;20210;-75
2023/01/18 06:35:30;;;;;;;2.57;1.90;;;;;;;0.88;100.00;93717.69;5041106;28;20207;-75
2023/01/18 06:37:59;;;;;;;3.97;2.03;;;;;;;0.90;100.00;93715.63;5044214;28;20191;-75
2023/01/18 06:40:26;;;;;;;2.60;1.83;;;;;;;0.93;100.00;93718.63;5041456;28;20273;-75
2023/01/18 06:42:53;;;;;;;2.97;2.00;;;;;;;0.97;100.00;93724.25;5041437;28;20229;-75
2023/01/18 06:45:21;;;;;;;4.63;2.13;;;;;;;0.87;100.00;93724.03;5039312;28;20300;-75
2023/01/18 06:47:48;;;;;;;3.10;2.20;;;;;;;0.86;100.00;93733.03;5027166;28;20211;-75
2023/01/18 06:50:17;;;;;;;3.60;2.30;;;;;;;0.89;100.00;93743.22;5039310;28;20219;-75
2023/01/18 06:52:44;;;;;;;2.50;1.97;;;;;;;0.86;100.00;93733.03;5027620;28;20257;-75
2023/01/18 06:55:14;;;;;;;2.60;1.80;;;;;;;0.87;100.00;93738.13;5038357;28;20202;-75
2023/01/18 06:57:41;;;;;;;2.37;1.70;;;;;;;0.90;100.00;93743.00;5043569;28;20204;-75
2023/01/18 07:00:11;;;;;;;2.90;1.63;;;;;;;0.94;100.00;93745.97;5041771;28;20206;-75
2023/01/18 07:02:38;;;;;;;1.97;1.67;;;;;;;0.89;100.00;93743.22;5039797;28;20213;-75
2023/01/18 07:05:06;;;;;;;2.47;1.67;;;;;;;0.98;100.00;93760.41;5039541;28;20292;-75
2023/01/18 07:07:33;;;;;;;4.03;2.10;;;;;;;0.96;100.00;93762.50;5039806;28;20211;-75
2023/01/18 07:10:00;;;;;;;6.20;1.90;;;;;;;0.99;100.00;93765.50;5038632;28;20277;-75
2023/01/18 07:12:28;;;;;;;3.67;2.70;;;;;;;0.98;100.00;93763.06;5037174;28;20202;-75
2023/01/18 07:14:56;;;;;;;5.20;3.00;;;;;;;0.98;100.00;93760.41;5043074;28;20205;-75
2023/01/18 07:17:23;;;;;;;6.37;3.13;;;;;;;1.00;100.00;93780.41;5030026;28;20214;-75
2023/01/18 07:19:50;;;;;;;4.43;3.30;;;;;;;0.92;100.00;93779.94;5046287;28;20216;-75
2023/01/18 07:22:17;;;;;;;13.33;8.70;;;;;;;0.89;100.00;93786.53;5037619;28;20195;-75
2023/01/18 07:24:45;;;;;;;10.07;6.43;;;;;;;0.89;100.00;93785.72;5039955;28;20326;-75
2023/01/18 07:27:12;;;;;;;8.80;4.73;;;;;;;0.90;100.00;93790.00;5044981;28;20257;-75
2023/01/18 07:29:40;;;;;;;9.17;5.43;;;;;;;0.95;100.00;93795.41;5039869;28;20212;-75
2023/01/18 07:32:07;;;;;;;7.00;4.40;;;;;;;1.00;100.00;93795.53;5041107;28;20319;-75
2023/01/18 07:34:34;;;;;;;6.73;4.30;;;;;;;1.03;100.00;93798.50;5044574;28;20206;-75
2023/01/18 07:37:01;;;;;;;13.13;6.10;;;;;;;0.98;100.00;93795.75;5040259;28;20218;-75
2023/01/18 07:39:28;;;;;;;10.23;5.60;;;;;;;0.98;100.00;93800.25;5050500;28;20208;-76
2023/01/18 07:41:55;;;;;;;8.77;4.60;;;;;;;0.97;100.00;93806.59;5032910;28;20205;-75
2023/01/18 07:44:23;;;;;;;6.53;3.93;;;;;;;0.94;100.00;93807.06;5046674;28;20292;-75
2023/01/18 07:46:51;;;;;;;7.60;3.80;;;;;;;1.03;100.00;93809.13;5043415;28;20202;-75
2023/01/18 07:49:18;;;;;;;5.57;3.10;;;;;;;1.11;100.00;93815.94;5037816;28;20229;-75
2023/01/18 07:51:45;;;;;;;3.87;2.70;;;;;;;1.15;100.00;93822.41;5042443;28;20218;-73
2023/01/18 07:54:12;;;;;;;8.27;3.37;;;;;;;1.19;100.00;93838.72;5040752;28;20210;-75
2023/01/18 07:56:39;;;;;;;4.60;4.00;;;;;;;1.21;100.00;93829.44;5028311;28;20199;-75
2023/01/18 07:59:06;;;;;;;4.23;2.90;;;;;;;1.16;100.00;93825.88;5046225;28;20587;-75
2023/01/18 08:01:33;;;;;;;4.47;2.60;;;;;;;1.14;100.00;93832.22;5048760;28;20197;-75
2023/01/18 08:04:01;;;;;;;4.80;3.10;;;;;;;1.12;100.00;93838.81;5033859;28;20293;-75
2023/01/18 08:06:28;;;;;;;3.53;2.60;;;;;;;1.19;100.00;93844.03;5041805;28;20205;-75
2023/01/18 08:08:56;;;;;;;3.93;2.60;;;;;;;1.19;100.00;93828.91;5037925;28;20210;-75
2023/01/18 08:11:23;;;;;;;4.77;3.10;;;;;;;1.37;100.00;93849.16;5040456;28;20221;-75
2023/01/18 08:13:51;;;;;;;12.80;4.30;;;;;;;1.41;100.00;93848.47;5037833;28;20210;-75
2023/01/18 08:16:18;;;;;;;5.00;3.40;;;;;;;1.41;100.00;93853.81;5045108;28;20221;-77
2023/01/18 08:18:48;;;;;;;5.50;3.30;;;;;;;1.42;100.00;93852.75;5046954;28;20206;-77
2023/01/18 08:21:16;;;;;;;6.13;3.40;;;;;;;1.52;100.00;93865.47;5043837;28;20210;-77
2023/01/18 08:23:43;;;;;;;8.30;4.50;;;;;;;1.51;100.00;93869.97;5034835;28;20242;-77
2023/01/18 08:26:11;;;;;;;5.17;3.53;;;;;;;1.46;100.00;93869.84;5043376;28;20230;-78
2023/01/18 08:28:40;;;;;;;8.27;5.03;;;;;;;1.40;100.00;93878.75;5047781;28;20284;-77
2023/01/18 08:31:09;;;;;;;6.90;4.30;;;;;;;1.48;100.00;93878.41;5034097;28;20288;-78
2023/01/18 08:33:39;;;;;;;5.70;3.70;;;;;;;1.56;100.00;93881.75;5043228;28;20205;-78
2023/01/18 08:36:10;;;;;;;3.67;2.10;;;;;;;1.53;100.00;93883.03;5037892;28;20199;-77
2023/01/18 08:38:38;;;;;;;3.43;2.13;;;;;;;1.52;100.00;93884.88;5032722;28;20206;-77
2023/01/18 08:41:09;;;;;;;2.97;2.10;;;;;;;1.54;100.00;93887.28;5040618;28;20260;-78
2023/01/18 08:43:36;;;;;;;2.47;2.00;;;;;;;1.56;100.00;93892.38;5047842;28;20202;-77
2023/01/18 08:46:03;;;;;;;2.90;2.10;;;;;;;1.57;100.00;93888.69;5047195;28;20246;-75
2023/01/18 08:48:30;;;;;;;2.73;1.87;;;;;;;1.66;100.00;93893.41;5044621;28;20215;-75
2023/01/18 08:51:02;;;;;;;2.30;1.93;;;;;;;1.71;100.00;93888.16;5048124;28;20213;-75
2023/01/18 08:53:29;;;;;;;2.87;2.17;;;;;;;1.83;100.00;93890.81;5035498;28;20202;-76
2023/01/18 08:55:58;;;;;;;2.93;1.70;;;;;;;1.87;100.00;93891.97;5047153;28;20202;-75
2023/01/18 08:58:25;;;;;;;3.93;2.07;;;;;;;1.88;100.00;93897.03;5044717;28;20228;-75
2023/01/18 09:00:53;;;;;;;3.03;2.20;;;;;;;1.96;100.00;93908.38;5042508;28;20244;-75
2023/01/18 09:03:21;;;;;;;4.07;2.17;;;;;;;2.03;100.00;93914.34;5045574;28;20267;-75
2023/01/18 09:05:48;;;;;;;2.63;1.83;;;;;;;2.05;100.00;93921.03;5046588;28;20215;-75
2023/01/18 09:08:15;;;;;;;6.20;3.53;;;;;;;2.03;100.00;93920.47;5048486;28;20213;-75
2023/01/18 09:10:42;;;;;;;4.53;2.63;;;;;;;1.99;100.00;93921.19;5048197;28;20221;-76
2023/01/18 09:13:10;;;;;;;3.87;2.00;;;;;;;1.99;100.00;93918.50;5045563;28;20202;-75
2023/01/18 09:15:37;;;;;;;3.70;2.03;;;;;;;2.01;100.00;93927.06;5044434;28;20256;-75
2023/01/18 09:18:06;;;;;;;3.03;1.90;;;;;;;2.11;100.00;93933.41;5043688;28;20210;-75
2023/01/18 09:20:35;;;;;;;4.47;2.20;;;;;;;2.21;100.00;93938.91;5037604;28;20222;-75
2023/01/18 09:23:05;;;;;;;4.50;2.20;;;;;;;2.28;100.00;93934.28;5046669;28;20209;-76
2023/01/18 09:25:32;;;;;;;3.07;2.20;;;;;;;2.28;100.00;93939.59;5044961;28;20245;-76
2023/01/18 09:28:01;;;;;;;3.50;2.40;;;;;;;2.37;100.00;93947.22;5045818;28;20206;-77
2023/01/18 09:30:29;;;;;;;6.20;3.43;;;;;;;2.55;100.00;93960.34;5043274;28;20206;-76
2023/01/18 09:32:57;;;;;;;3.67;2.50;;;;;;;2.71;100.00;93954.22;5042258;28;20191;-76
2023/01/18 09:35:24;;;;;;;4.00;2.50;;;;;;;2.84;100.00;93958.41;5047398;28;20217;-76
2023/01/18 09:37:51;;;;;;;3.50;2.60;;;;;;;2.91;100.00;93959.06;5048750;28;20216;-75
2023/01/18 09:40:20;;;;;;;3.77;2.40;;;;;;;3.01;100.00;93962.72;5041965;28;20198;-75
2023/01/18 09:42:50;;;;;;;23.90;3.10;;;;;;;3.11;100.00;93966.59;5043028;28;20206;-75
2023/01/18 09:45:30;;;;;;;7.20;3.30;;;;;;;3.19;100.00;93958.19;5041874;28;20210;-75
2023/01/18 09:48:02;;;;;;;7.83;3.73;;;;;;;3.30;100.00;93962.66;5045613;28;20296;-76
2023/01/18 09:50:32;;;;;;;7.77;2.90;;;;;;;3.32;100.00;93963.19;5047119;28;20206;-76
2023/01/18 09:53:15;;;;;;;8.13;2.67;;;;;;;3.45;100.00;93959.41;5048933;28;20208;-75
2023/01/18 09:55:51;;;;;;;5.03;2.20;;;;;;;3.44;98.38;93953.25;5035186;28;20203;-76
2023/01/18 09:58:33;;;;;;;3.17;1.80;;;;;;;3.55;99.11;93955.03;5032562;28;20210;-76
2023/01/18 10:01:06;;;;;;;2.77;1.90;;;;;;;3.62;98.62;93960.19;5044163;28;20221;-76
2023/01/18 10:03:40;;;;;;;13.53;2.23;;;;;;;3.68;97.54;93965.34;5043296;28;20237;-76
2023/01/18 10:06:14;;;;;;;2.60;1.87;;;;;;;3.80;97.92;93958.03;5034850;28;20210;-76
2023/01/18 10:08:52;;;;;;;4.00;1.90;;;;;;;3.85;96.45;93964.50;5039018;28;20294;-76
2023/01/18 10:11:28;;;;;;;3.73;1.80;;;;;;;3.90;92.72;93967.25;5044856;28;20321;-76
2023/01/18 10:14:03;;;;;;;4.87;1.63;;;;;;;4.03;88.81;93970.34;5046184;28;20210;-76
2023/01/18 10:16:35;;;;;;;6.33;1.90;;;;;;;4.21;81.38;93982.59;5032712;28;20260;-77
2023/01/18 10:19:03;;;;;;;1.77;1.40;;;;;;;4.41;81.44;93980.19;5040263;28;20206;-77
2023/01/18 10:21:46;;;;;;;2.70;1.80;;;;;;;4.62;88.79;93988.41;5045711;28;20201;-77
2023/01/18 10:24:40;;;;;;;2.87;1.93;;;;;;;4.65;92.95;93986.03;5046994;28;20316;-77
2023/01/18 10:27:26;;;;;;;1.37;1.27;;;;;;;4.63;89.83;93992.69;5035837;28;20210;-78
2023/01/18 10:30:06;;;;;;;3.17;2.10;;;;;;;4.59;99.48;93994.25;5041400;28;20198;-77
2023/01/18 10:32:36;;;;;;;8.40;2.40;;;;;;;4.56;100.00;93995.56;5039223;28;20265;-76
2023/01/18 10:35:13;;;;;;;5.50;2.33;;;;;;;4.43;100.00;93993.25;5045765;28;20202;-76
2023/01/18 10:37:45;;;;;;;2.80;2.27;;;;;;;4.41;100.00;93998.88;5036412;28;20301;-76
2023/01/18 10:40:14;;;;;;;7.10;2.17;;;;;;;4.33;100.00;93998.50;5045192;28;20285;-75
2023/01/18 10:42:45;;;;;;;5.07;2.40;;;;;;;4.29;100.00;94003.53;5042450;28;20210;-75
2023/01/18 10:45:18;;;;;;;6.03;1.80;;;;;;;4.16;100.00;94004.72;5041373;28;20294;-76
2023/01/18 10:47:47;;;;;;;5.50;2.37;;;;;;;4.05;100.00;93994.94;5041259;28;20213;-76
2023/01/18 10:50:17;;;;;;;4.50;1.70;;;;;;;4.00;100.00;94007.41;5038720;28;20202;-76
2023/01/18 10:52:44;;;;;;;3.90;1.63;;;;;;;3.98;100.00;94010.34;5042600;28;20233;-75
2023/01/18 10:55:16;;;;;;;4.73;1.60;;;;;;;3.94;100.00;94011.06;5036319;28;20202;-76
2023/01/18 10:57:47;;;;;;;3.53;1.40;;;;;;;3.88;100.00;94012.88;5035482;28;20221;-76
2023/01/18 11:00:23;;;;;;;2.17;1.50;;;;;;;3.83;100.00;94015.44;5040493;28;20205;-75
2023/01/18 11:02:54;;;;;;;1.50;1.17;;;;;;;3.82;100.00;94018.38;5038780;28;20198;-75
2023/01/18 11:05:29;;;;;;;3.33;1.30;;;;;;;3.77;100.00;94011.91;5044331;28;20210;-77
2023/01/18 11:08:20;;;;;;;1.20;1.10;;;;;;;3.74;100.00;94016.94;5041758;28;20278;-77
2023/01/18 11:10:58;;;;;;;1.47;1.37;;;;;;;3.68;100.00;94021.38;5046879;28;20375;-77
2023/01/18 11:13:29;;;;;;;3.07;1.40;;;;;;;3.56;100.00;94030.53;5047020;28;20230;-78
2023/01/18 11:16:06;;;;;;;2.30;1.50;;;;;;;3.62;100.00;94032.22;5048467;28;20229;-78
2023/01/18 11:18:34;;;;;;;2.00;1.03;;;;;;;3.66;100.00;94036.00;5048005;28;20233;-78
2023/01/18 11:21:02;;;;;;;2.30;1.20;;;;;;;3.75;100.00;94040.69;5049516;28;20194;-77
2023/01/18 11:23:34;;;;;;;1.20;1.10;;;;;;;3.76;100.00;94038.84;5037991;28;20202;-78
2023/01/18 11:26:04;;;;;;;0.97;0.90;;;;;;;3.73;100.00;94037.47;5050549;28;20246;-77
2023/01/18 11:28:38;;;;;;;2.60;1.07;;;;;;;3.69;100.00;94047.00;5040115;28;20211;-78
2023/01/18 11:31:11;;;;;;;0.80;0.80;;;;;;;3.61;100.00;94038.59;5036518;28;20273;-78
2023/01/18 11:33:49;;;;;;;2.80;1.20;;;;;;;3.77;100.00;94043.13;5047363;28;20207;-77
2023/01/18 11:36:19;;;;;;;1.23;1.10;;;;;;;3.88;100.00;94052.09;5046323;28;20202;-77
2023/01/18 11:38:47;;;;;;;2.00;0.90;;;;;;;3.87;100.00;94058.47;5046854;28;20199;-78
2023/01/18 11:41:17;;;;;;;0.80;0.80;;;;;;;3.70;100.00;94056.63;5050182;28;20198;-77
2023/01/18 11:43:57;;;;;;;1.37;0.63;;;;;;;3.71;100.00;94060.13;5037540;28;20203;-77
2023/01/18 11:46:37;;;;;;;1.53;0.47;;;;;;;3.48;100.00;94060.28;5049700;28;20271;-77
2023/01/18 11:49:18;;;;;;;0.50;0.50;;;;;;;3.26;100.00;94074.31;5042029;28;20221;-77
2023/01/18 11:51:51;;;;;;;0.70;0.70;;;;;;;3.17;100.00;94074.94;5041521;28;20246;-78
2023/01/18 11:54:27;;;;;;;0.40;0.40;;;;;;;3.18;100.00;94082.72;5050329;28;20213;-78
2023/01/18 11:56:58;;;;;;;0.67;0.60;;;;;;;3.23;100.00;94082.00;5054223;28;20217;-78
2023/01/18 11:59:29;;;;;;;0.70;0.70;;;;;;;3.25;100.00;94082.56;5046539;28;20198;-78
2023/01/18 12:02:29;;;;;;;0.87;0.50;;;;;;;3.24;100.00;94083.59;5036644;28;20350;-77
2023/01/18 12:05:21;;;;;;;0.57;0.57;;;;;;;3.31;100.00;94093.09;5043290;28;20202;-77
2023/01/18 12:07:58;;;;;;;0.50;0.50;;;;;;;3.26;100.00;94095.66;5036091;28;20216;-77
2023/01/18 12:10:27;;;;;;;0.90;0.60;;;;;;;3.21;100.00;94097.44;5056045;28;20312;-76
2023/01/18 12:13:13;;;;;;;0.73;0.50;;;;;;;3.26;100.00;94100.97;5047562;28;20217;-77
2023/01/18 12:16:00;;;;;;;2.93;1.07;;;;;;;3.19;100.00;94102.19;5041025;28;20206;-77
2023/01/18 12:18:49;;;;;;;0.50;0.50;;;;;;;3.11;100.00;94119.38;5034857;28;20229;-77